createdAt,value
2018-11-02T00:00:42.464Z,101091.60
2018-11-02T00:03:11.635Z,101087.94
2018-11-02T00:05:40.829Z,101084.58
2018-11-02T00:08:26.093Z,101081.13
2018-11-02T00:11:10.966Z,101078.44
2018-11-02T00:13:40.470Z,101077.31
2018-11-02T00:16:09.752Z,101082.28
2018-11-02T00:18:38.967Z,101073.67
2018-11-02T00:21:08.623Z,101073.87
2018-11-02T00:23:38.105Z,101078.86
2018-11-02T00:26:07.445Z,101080.69
2018-11-02T00:28:36.885Z,101101.51
2018-11-02T00:31:06.193Z,101080.23
2018-11-02T00:33:35.397Z,101079.09
2018-11-02T00:36:05.013Z,101091.40
2018-11-02T00:38:34.233Z,101091.08
2018-11-02T00:41:03.517Z,101084.08
2018-11-02T00:43:32.644Z,101075.92
2018-11-02T00:46:01.781Z,101085.67
2018-11-02T00:48:30.897Z,101073.70
2018-11-02T00:51:00.530Z,101081.06
2018-11-02T00:53:29.714Z,101082.49
2018-11-02T00:55:58.848Z,101070.61
2018-11-02T00:58:28.209Z,101059.88
2018-11-02T01:00:57.373Z,101037.95
2018-11-02T01:03:26.570Z,101038.73
2018-11-02T01:05:56.178Z,101047.17
2018-11-02T01:08:25.413Z,101046.50
2018-11-02T01:10:54.525Z,101043.24
2018-11-02T01:13:24.003Z,101040.86
2018-11-02T01:15:53.190Z,101045.56
2018-11-02T01:18:22.408Z,101040.09
2018-11-02T01:20:51.877Z,101036.06
2018-11-02T01:23:21.017Z,101019.02
2018-11-02T01:25:50.201Z,101013.47
2018-11-02T01:28:19.724Z,101012.61
2018-11-02T01:30:48.905Z,100997.86
2018-11-02T01:33:23.265Z,100992.68
2018-11-02T01:35:52.481Z,100987.42
2018-11-02T01:38:21.594Z,100987.90
2018-11-02T01:40:51.100Z,100977.66
2018-11-02T01:43:20.517Z,100970.47
2018-11-02T01:45:50.031Z,100954.77
2018-11-02T01:48:19.651Z,100941.92
2018-11-02T01:50:48.810Z,100927.08
2018-11-02T01:53:18.065Z,100881.37
2018-11-02T01:55:47.605Z,100949.69
2018-11-02T01:58:16.850Z,100953.84
2018-11-02T02:00:46.169Z,100948.67
2018-11-02T02:03:15.709Z,100948.28
2018-11-02T02:05:44.818Z,100948.00
2018-11-02T02:08:14.015Z,100934.67
2018-11-02T02:10:44.164Z,100935.82
2018-11-02T02:13:13.334Z,100930.84
2018-11-02T02:15:42.522Z,100938.50
2018-11-02T02:18:11.944Z,100929.88
2018-11-02T02:20:41.052Z,100927.95
2018-11-02T02:23:10.313Z,100918.48
2018-11-02T02:25:41.274Z,100923.56
2018-11-02T02:28:10.446Z,100935.63
2018-11-02T02:30:39.657Z,100924.14
2018-11-02T02:33:09.153Z,100916.86
2018-11-02T02:35:38.251Z,100928.92
2018-11-02T02:38:07.461Z,100930.66
2018-11-02T02:40:37.053Z,100929.51
2018-11-02T02:43:06.281Z,100913.31
2018-11-02T02:45:35.459Z,100908.24
2018-11-02T02:48:04.953Z,100908.53
2018-11-02T02:50:34.145Z,100906.97
2018-11-02T02:53:03.349Z,100907.67
2018-11-02T02:55:32.855Z,100889.47
2018-11-02T02:58:02.041Z,100894.36
2018-11-02T03:00:31.742Z,100889.19
2018-11-02T03:03:01.261Z,100892.53
2018-11-02T03:05:30.534Z,100892.62
2018-11-02T03:07:59.749Z,100902.59
2018-11-02T03:10:29.509Z,100901.92
2018-11-02T03:12:58.666Z,100890.62
2018-11-02T03:15:27.871Z,100911.57
2018-11-02T03:17:57.369Z,100904.77
2018-11-02T03:20:26.490Z,100914.34
2018-11-02T03:22:55.665Z,100905.53
2018-11-02T03:25:25.277Z,100897.97
2018-11-02T03:27:54.547Z,100899.12
2018-11-02T03:30:23.869Z,100900.27
2018-11-02T03:32:53.481Z,100897.11
2018-11-02T03:35:22.668Z,100891.55
2018-11-02T03:37:52.625Z,100882.08
2018-11-02T03:40:22.196Z,100884.95
2018-11-02T03:42:51.323Z,100889.45
2018-11-02T03:45:20.430Z,100878.15
2018-11-02T03:47:49.891Z,100880.35
2018-11-02T03:50:19.104Z,100878.15
2018-11-02T03:52:48.286Z,100862.63
2018-11-02T03:55:17.777Z,100852.48
2018-11-02T03:57:47.006Z,100849.03
2018-11-02T04:00:16.201Z,100857.27
2018-11-02T04:02:45.701Z,100852.47
2018-11-02T04:05:14.906Z,100855.27
2018-11-02T04:07:44.658Z,100858.91
2018-11-02T04:10:14.476Z,100859.27
2018-11-02T04:12:43.733Z,100848.55
2018-11-02T04:15:13.017Z,100840.04
2018-11-02T04:17:42.637Z,100846.65
2018-11-02T04:20:11.846Z,100847.70
2018-11-02T04:22:41.005Z,100840.22
2018-11-02T04:25:10.597Z,100835.42
2018-11-02T04:27:39.717Z,100834.94
2018-11-02T04:30:09.354Z,100832.83
2018-11-02T04:32:38.825Z,100825.84
2018-11-02T04:35:08.978Z,100823.34
2018-11-02T04:37:38.658Z,100822.30
2018-11-02T04:40:08.314Z,100821.71
2018-11-02T04:42:37.679Z,100820.07
2018-11-02T04:45:07.278Z,100810.41
2018-11-02T04:47:36.514Z,100810.00
2018-11-02T04:50:07.016Z,100817.97
2018-11-02T04:52:36.845Z,100808.18
2018-11-02T04:55:07.183Z,100800.41
2018-11-02T04:57:36.841Z,100805.11
2018-11-02T05:00:07.734Z,100803.67
2018-11-02T05:02:37.153Z,100796.97
2018-11-02T05:05:06.664Z,100798.59
2018-11-02T05:07:36.034Z,100796.57
2018-11-02T05:10:07.004Z,100805.97
2018-11-02T05:12:36.134Z,100799.84
2018-11-02T05:15:05.661Z,100798.22
2018-11-02T05:17:35.238Z,100787.34
2018-11-02T05:20:04.761Z,100785.14
2018-11-02T05:22:33.929Z,100785.45
2018-11-02T05:25:03.547Z,100783.15
2018-11-02T05:27:32.775Z,100780.95
2018-11-02T05:30:01.953Z,100785.45
2018-11-02T05:32:31.445Z,100780.39
2018-11-02T05:35:00.619Z,100784.97
2018-11-02T05:37:29.833Z,100780.19
2018-11-02T05:39:59.061Z,100780.67
2018-11-02T05:42:28.377Z,100778.47
2018-11-02T05:44:57.514Z,100777.51
2018-11-02T05:47:27.099Z,100768.11
2018-11-02T05:49:56.185Z,100780.95
2018-11-02T05:52:25.312Z,100778.27
2018-11-02T05:54:54.737Z,100791.51
2018-11-02T05:57:24.157Z,100804.62
2018-11-02T05:59:53.379Z,100790.55
2018-11-02T06:02:22.965Z,100789.68
2018-11-02T06:04:52.181Z,100796.31
2018-11-02T06:07:21.307Z,100786.72
2018-11-02T06:09:51.375Z,100793.13
2018-11-02T06:12:20.489Z,100789.78
2018-11-02T06:14:49.643Z,100788.62
2018-11-02T06:17:19.254Z,100785.56
2018-11-02T06:19:48.463Z,100788.55
2018-11-02T06:22:17.720Z,100779.81
2018-11-02T06:24:47.258Z,100787.94
2018-11-02T06:27:16.453Z,100787.66
2018-11-02T06:29:45.659Z,100757.91
2018-11-02T06:32:14.874Z,100790.55
2018-11-02T06:34:44.078Z,100786.82
2018-11-02T06:37:13.313Z,100798.03
2018-11-02T06:39:42.573Z,100797.94
2018-11-02T06:42:11.753Z,100794.49
2018-11-02T06:44:41.127Z,100791.33
2018-11-02T06:47:10.378Z,100802.06
2018-11-02T06:49:39.572Z,100790.36
2018-11-02T06:52:08.789Z,100782.69
2018-11-02T06:54:38.450Z,100777.93
2018-11-02T06:57:07.990Z,100792.84
2018-11-02T06:59:37.390Z,100791.41
2018-11-02T07:02:07.371Z,100790.72
2018-11-02T07:04:37.318Z,100786.31
2018-11-02T07:07:06.843Z,100800.05
2018-11-02T07:09:36.666Z,100799.16
2018-11-02T07:12:06.458Z,100799.36
2018-11-02T07:14:35.734Z,100800.91
2018-11-02T07:17:05.640Z,100783.73
2018-11-02T07:19:35.416Z,100782.08
2018-11-02T07:22:05.558Z,100781.12
2018-11-02T07:24:35.018Z,100784.46
2018-11-02T07:27:05.901Z,100783.88
2018-11-02T07:29:36.149Z,100781.46
2018-11-02T07:32:06.294Z,100772.86
2018-11-02T07:34:36.008Z,100780.13
2018-11-02T07:37:05.864Z,100771.96
2018-11-02T07:39:35.756Z,100782.49
2018-11-02T07:42:05.498Z,100789.16
2018-11-02T07:44:37.300Z,100797.28
2018-11-02T07:47:09.173Z,100808.47
2018-11-02T07:49:40.006Z,100809.06
2018-11-02T07:52:09.504Z,100814.81
2018-11-02T07:54:39.561Z,100816.75
2018-11-02T07:57:09.459Z,100812.05
2018-11-02T07:59:39.155Z,100814.91
2018-11-02T08:02:09.005Z,100825.86
2018-11-02T08:04:38.760Z,100834.84
2018-11-02T08:07:09.041Z,100842.35
2018-11-02T08:09:38.790Z,100842.35
2018-11-02T08:12:10.276Z,100847.17
2018-11-02T08:14:39.937Z,100852.55
2018-11-02T08:17:09.517Z,100863.94
2018-11-02T08:19:39.681Z,100860.33
2018-11-02T08:22:09.545Z,100859.39
2018-11-02T08:24:38.978Z,100865.28
2018-11-02T08:27:08.713Z,100865.73
2018-11-02T08:29:38.702Z,100861.80
2018-11-02T08:32:08.522Z,100866.77
2018-11-02T08:34:37.943Z,100856.02
2018-11-02T08:37:07.922Z,100849.41
2018-11-02T08:39:37.391Z,100849.66
2018-11-02T08:42:07.029Z,100844.87
2018-11-02T08:44:37.245Z,100833.98
2018-11-02T08:47:09.851Z,100840.59
2018-11-02T08:49:39.853Z,100840.59
2018-11-02T08:52:09.642Z,100838.66
2018-11-02T08:54:39.712Z,100841.45
2018-11-02T08:57:09.453Z,100846.78
2018-11-02T08:59:39.287Z,100840.55
2018-11-02T09:02:09.101Z,100842.81
2018-11-02T09:04:38.541Z,100846.41
2018-11-02T09:07:08.499Z,100842.92
2018-11-02T09:09:38.229Z,100842.86
2018-11-02T09:12:07.547Z,100841.64
2018-11-02T09:14:36.734Z,100840.30
2018-11-02T09:17:07.253Z,100842.16
2018-11-02T09:19:36.370Z,100850.64
2018-11-02T09:22:05.600Z,100845.11
2018-11-02T09:24:34.897Z,100845.81
2018-11-02T09:27:04.190Z,100850.85
2018-11-02T09:29:33.454Z,100852.25
2018-11-02T09:32:02.784Z,100852.20
2018-11-02T09:34:32.246Z,100851.20
2018-11-02T09:37:01.386Z,100845.97
2018-11-02T09:39:30.591Z,100843.22
2018-11-02T09:41:59.909Z,100852.75
2018-11-02T09:44:29.149Z,100850.66
2018-11-02T09:46:58.369Z,100855.40
2018-11-02T09:49:27.544Z,100857.45
2018-11-02T09:51:56.759Z,100853.30
2018-11-02T09:54:26.341Z,100855.92
2018-11-02T09:56:55.673Z,100861.75
2018-11-02T09:59:24.867Z,100858.39
2018-11-02T10:01:54.123Z,100856.63
2018-11-02T10:04:23.752Z,100859.92
2018-11-02T10:06:52.905Z,100860.37
2018-11-02T10:09:22.685Z,100866.95
2018-11-02T10:11:51.761Z,100870.62
2018-11-02T10:14:20.953Z,100870.77
2018-11-02T10:16:50.161Z,100867.89
2018-11-02T10:19:19.377Z,100869.31
2018-11-02T10:21:48.549Z,100868.38
2018-11-02T10:24:21.048Z,100862.81
2018-11-02T10:26:50.253Z,100861.69
2018-11-02T10:29:20.049Z,100863.78
2018-11-02T10:31:49.223Z,100861.09
2018-11-02T10:34:18.485Z,100861.61
2018-11-02T10:36:48.129Z,100863.67
2018-11-02T10:39:17.280Z,100867.70
2018-11-02T10:41:51.922Z,100879.89
2018-11-02T10:44:24.727Z,100883.97
2018-11-02T10:46:53.976Z,100884.45
2018-11-02T10:49:23.221Z,100890.21
2018-11-02T10:51:52.293Z,100895.59
2018-11-02T10:54:21.620Z,100893.23
2018-11-02T10:56:50.834Z,100895.93
2018-11-02T10:59:20.133Z,100892.97
2018-11-02T11:01:56.269Z,100901.02
2018-11-02T11:04:25.497Z,100897.69
2018-11-02T11:06:54.742Z,100894.73
2018-11-02T11:09:24.429Z,100903.30
2018-11-02T11:11:53.650Z,100899.03
2018-11-02T11:14:22.755Z,100901.34
2018-11-02T11:16:51.981Z,100898.36
2018-11-02T11:19:21.282Z,100894.88
2018-11-02T11:21:50.541Z,100895.82
2018-11-02T11:24:20.529Z,100903.56
2018-11-02T11:26:49.718Z,100908.45
2018-11-02T11:29:18.965Z,100903.56
2018-11-02T11:31:48.125Z,100896.83
2018-11-02T11:34:17.438Z,100892.05
2018-11-02T11:36:46.755Z,100901.02
2018-11-02T11:39:15.933Z,100906.78
2018-11-02T11:41:45.293Z,100906.30
2018-11-02T11:44:14.429Z,100903.78
2018-11-02T11:46:43.994Z,100903.86
2018-11-02T11:49:13.254Z,100905.32
2018-11-02T11:51:42.405Z,100901.84
2018-11-02T11:54:11.714Z,100906.18
2018-11-02T11:56:40.867Z,100921.10
2018-11-02T11:59:10.127Z,100923.23
2018-11-02T12:01:39.444Z,100924.69
2018-11-02T12:04:08.798Z,100923.39
2018-11-02T12:06:38.027Z,100929.00
2018-11-02T12:09:07.854Z,100937.78
2018-11-02T12:11:37.125Z,100931.42
2018-11-02T12:14:06.314Z,100935.02
2018-11-02T12:16:35.790Z,100944.73
2018-11-02T12:19:05.120Z,100953.38
2018-11-02T12:21:34.312Z,100963.78
2018-11-02T12:24:03.539Z,100978.10
2018-11-02T12:26:33.189Z,100976.59
2018-11-02T12:29:02.529Z,100990.56
2018-11-02T12:31:31.687Z,100994.76
2018-11-02T12:34:00.885Z,100997.78
2018-11-02T12:36:30.361Z,101000.19
2018-11-02T12:38:59.622Z,101007.73
2018-11-02T12:41:28.917Z,101011.77
2018-11-02T12:43:58.245Z,101019.36
2018-11-02T12:46:27.617Z,101015.38
2018-11-02T12:48:57.149Z,101016.50
2018-11-02T12:51:25.985Z,101025.52
2018-11-02T12:53:55.505Z,101022.50
2018-11-02T12:56:24.861Z,101024.22
2018-11-02T12:58:54.488Z,101033.65
2018-11-02T13:01:23.741Z,101030.95
2018-11-02T13:03:52.897Z,101025.59
2018-11-02T13:06:22.029Z,101033.54
2018-11-02T13:08:51.185Z,101028.84
2018-11-02T13:11:20.333Z,101030.19
2018-11-02T13:13:49.481Z,101026.13
2018-11-02T13:16:18.697Z,101025.34
2018-11-02T13:18:48.023Z,101022.04
2018-11-02T13:21:17.181Z,101023.98
2018-11-02T13:23:46.693Z,101033.78
2018-11-02T13:26:15.987Z,101036.86
2018-11-02T13:28:45.133Z,101039.17
2018-11-02T13:31:14.367Z,101039.55
2018-11-02T13:33:43.482Z,101045.09
2018-11-02T13:36:12.641Z,101048.00
2018-11-02T13:38:41.838Z,101045.75
2018-11-02T13:41:10.944Z,101050.44
2018-11-02T13:43:40.192Z,101060.72
2018-11-02T13:46:09.719Z,101065.73
2018-11-02T13:48:39.666Z,101063.53
2018-11-02T13:51:08.982Z,101069.02
2018-11-02T13:53:38.252Z,101060.41
2018-11-02T13:56:07.381Z,101062.13
2018-11-02T13:58:36.576Z,101068.43
2018-11-02T14:01:06.540Z,101071.02
2018-11-02T14:03:35.697Z,101064.77
2018-11-02T14:06:04.917Z,101068.54
2018-11-02T14:08:34.101Z,101076.68
2018-11-02T14:11:03.273Z,101081.69
2018-11-02T14:13:32.577Z,101077.49
2018-11-02T14:16:01.937Z,101083.49
2018-11-02T14:18:31.238Z,101085.54
2018-11-02T14:21:00.369Z,101092.48
2018-11-02T14:23:29.497Z,101096.14
2018-11-02T14:25:58.661Z,101088.50
2018-11-02T14:28:27.869Z,101086.61
2018-11-02T14:30:57.093Z,101082.84
2018-11-02T14:33:26.273Z,101085.42
2018-11-02T14:35:55.385Z,101090.38
2018-11-02T14:38:24.865Z,101085.47
2018-11-02T14:40:54.170Z,101092.04
2018-11-02T14:43:23.325Z,101094.52
2018-11-02T14:45:52.593Z,101100.45
2018-11-02T14:48:21.709Z,101099.52
2018-11-02T14:50:50.988Z,101099.91
2018-11-02T14:53:20.464Z,101097.42
2018-11-02T14:55:49.602Z,101089.13
2018-11-02T14:58:18.865Z,101089.73
2018-11-02T15:00:48.138Z,101083.47
2018-11-02T15:03:17.385Z,101076.88
2018-11-02T15:05:46.547Z,101073.97
2018-11-02T15:08:15.783Z,101066.16
2018-11-02T15:10:44.945Z,101067.66
2018-11-02T15:13:14.869Z,101067.39
2018-11-02T15:15:44.397Z,101079.88
2018-11-02T15:18:13.589Z,101080.47
2018-11-02T15:20:42.746Z,101082.02
2018-11-02T15:23:12.138Z,101088.92
2018-11-02T15:25:41.361Z,101092.31
2018-11-02T15:28:10.534Z,101098.76
2018-11-02T15:30:39.689Z,101106.83
2018-11-02T15:33:08.841Z,101111.73
2018-11-02T15:35:38.049Z,101098.21
2018-11-02T15:38:07.553Z,101098.21
2018-11-02T15:40:36.657Z,101106.25
2018-11-02T15:43:06.264Z,101104.45
2018-11-02T15:45:35.405Z,101101.00
2018-11-02T15:48:04.591Z,101099.94
2018-11-02T15:50:33.705Z,101104.25
2018-11-02T15:53:03.107Z,101117.04
2018-11-02T15:55:32.245Z,101118.17
2018-11-02T15:58:01.437Z,101118.87
2018-11-02T16:00:31.068Z,101123.21
2018-11-02T16:03:00.241Z,101130.62
2018-11-02T16:05:29.450Z,101130.34
2018-11-02T16:07:58.718Z,101130.95
2018-11-02T16:10:27.926Z,101132.98
2018-11-02T16:12:57.153Z,101135.27
2018-11-02T16:15:26.638Z,101133.15
2018-11-02T16:17:55.846Z,101138.24
2018-11-02T16:20:24.965Z,101131.64
2018-11-02T16:22:54.117Z,101130.86
2018-11-02T16:25:23.330Z,101136.23
2018-11-02T16:27:52.577Z,101129.58
2018-11-02T16:30:22.286Z,101128.95
2018-11-02T16:32:51.441Z,101119.80
2018-11-02T16:35:20.625Z,101128.56
2018-11-02T16:37:50.137Z,101135.17
2018-11-02T16:40:19.334Z,101132.63
2018-11-02T16:42:48.448Z,101138.66
2018-11-02T16:45:17.645Z,101148.19
2018-11-02T16:47:46.815Z,101148.66
2018-11-02T16:50:16.370Z,101151.63
2018-11-02T16:52:45.937Z,101157.48
2018-11-02T16:55:15.141Z,101160.56
2018-11-02T16:57:44.438Z,101161.63
2018-11-02T17:00:15.852Z,101161.98
2018-11-02T17:02:46.242Z,101157.97
2018-11-02T17:05:16.128Z,101157.20
2018-11-02T17:07:45.243Z,101153.66
2018-11-02T17:10:15.225Z,101155.38
2018-11-02T17:12:44.969Z,101158.84
2018-11-02T17:15:14.586Z,101159.57
2018-11-02T17:17:43.765Z,101171.67
2018-11-02T17:20:14.545Z,101172.75
2018-11-02T17:22:43.678Z,101181.76
2018-11-02T17:25:13.354Z,101179.08
2018-11-02T17:27:42.986Z,101185.32
2018-11-02T17:30:13.881Z,101194.44
2018-11-02T17:32:43.391Z,101198.66
2018-11-02T17:35:13.445Z,101199.83
2018-11-02T17:40:12.515Z,101200.00
2018-11-02T17:42:42.120Z,101202.89
2018-11-02T17:45:11.590Z,101202.87
2018-11-02T17:47:41.819Z,101208.92
2018-11-02T17:50:12.383Z,101208.82
2018-11-02T17:52:42.291Z,101215.25
2018-11-02T17:55:11.433Z,101213.65
2018-11-02T17:57:40.637Z,101216.34
2018-11-02T18:00:12.458Z,101226.13
2018-11-02T18:02:41.826Z,101224.75
2018-11-02T18:05:11.749Z,101220.63
2018-11-02T18:07:40.998Z,101218.90
2018-11-02T18:10:12.089Z,101220.17
2018-11-02T18:12:42.174Z,101230.15
2018-11-02T18:15:12.462Z,101226.11
2018-11-02T18:17:41.593Z,101225.27
2018-11-02T18:20:13.091Z,101224.40
2018-11-02T18:22:42.517Z,101226.13
2018-11-02T18:25:12.116Z,101227.66
2018-11-02T18:27:41.834Z,101229.45
2018-11-02T18:30:11.801Z,101236.66
2018-11-02T18:32:41.009Z,101239.72
2018-11-02T18:35:11.297Z,101242.61
2018-11-02T18:37:40.521Z,101241.84
2018-11-02T18:40:11.744Z,101245.13
2018-11-02T18:42:40.949Z,101244.52
2018-11-02T18:45:12.215Z,101249.70
2018-11-02T18:47:46.361Z,101252.34
2018-11-02T18:50:17.337Z,101244.33
2018-11-02T18:52:47.217Z,101249.23
2018-11-02T18:55:17.165Z,101244.23
2018-11-02T18:57:46.534Z,101247.98
2018-11-02T19:00:15.798Z,101249.90
2018-11-02T19:02:45.013Z,101249.12
2018-11-02T19:05:15.318Z,101242.31
2018-11-02T19:07:44.637Z,101231.47
2018-11-02T19:10:14.655Z,101228.02
2018-11-02T19:12:44.243Z,101231.09
2018-11-02T19:15:15.149Z,101233.77
2018-11-02T19:17:44.387Z,101235.02
2018-11-02T19:20:13.835Z,101233.20
2018-11-02T19:22:43.558Z,101232.63
2018-11-02T19:25:13.817Z,101226.09
2018-11-02T19:27:43.785Z,101228.78
2018-11-02T19:30:13.746Z,101226.09
2018-11-02T19:32:43.041Z,101218.90
2018-11-02T19:35:13.382Z,101217.08
2018-11-02T19:37:42.958Z,101219.56
2018-11-02T19:40:14.445Z,101225.91
2018-11-02T19:42:43.826Z,101215.92
2018-11-02T19:45:13.485Z,101219.95
2018-11-02T19:47:48.136Z,101212.38
2018-11-02T19:50:18.109Z,101213.81
2018-11-02T19:52:47.342Z,101220.30
2018-11-02T19:55:16.765Z,101219.28
2018-11-02T19:57:45.882Z,101220.09
2018-11-02T20:00:16.310Z,101220.29
2018-11-02T20:02:45.813Z,101220.67
2018-11-02T20:05:16.793Z,101215.10
2018-11-02T20:07:46.428Z,101212.80
2018-11-02T20:10:16.380Z,101202.45
2018-11-02T20:12:46.090Z,101199.09
2018-11-02T20:15:15.856Z,101204.18
2018-11-02T20:17:45.015Z,101203.06
2018-11-02T20:20:15.323Z,101202.59
2018-11-02T20:22:44.533Z,101202.01
2018-11-02T20:25:15.154Z,101208.62
2018-11-02T20:27:44.489Z,101209.20
2018-11-02T20:30:16.591Z,101211.15
2018-11-02T20:35:14.331Z,101213.07
2018-11-02T20:37:43.589Z,101221.52
2018-11-02T20:40:15.297Z,101225.63
2018-11-02T20:42:44.969Z,101221.41
2018-11-02T20:45:14.653Z,101224.19
2018-11-02T20:47:49.040Z,101222.58
2018-11-02T20:50:18.501Z,101226.99
2018-11-02T20:52:47.789Z,101230.16
2018-11-02T20:55:17.661Z,101233.62
2018-11-02T20:57:46.808Z,101232.08
2018-11-02T21:00:17.814Z,101238.61
2018-11-02T21:02:46.946Z,101235.81
2018-11-02T21:05:17.420Z,101229.29
2018-11-02T21:07:47.237Z,101228.42
2018-11-02T21:10:17.797Z,101219.80
2018-11-02T21:12:47.220Z,101220.91
2018-11-02T21:15:17.883Z,101228.78
2018-11-02T21:17:47.527Z,101235.89
2018-11-02T21:20:18.821Z,101233.39
2018-11-02T21:22:48.255Z,101238.58
2018-11-02T21:25:17.561Z,101242.22
2018-11-02T21:27:47.293Z,101215.54
2018-11-02T21:30:21.321Z,101245.67
2018-11-02T21:32:51.153Z,101247.91
2018-11-02T21:35:20.843Z,101252.23
2018-11-02T21:37:50.501Z,101252.23
2018-11-02T21:40:23.871Z,101255.69
2018-11-02T21:42:53.152Z,101256.84
2018-11-02T21:45:23.574Z,101254.51
2018-11-02T21:47:52.717Z,101256.66
2018-11-02T21:50:22.337Z,101252.39
2018-11-02T21:52:51.448Z,101259.05
2018-11-02T21:55:20.542Z,101262.03
2018-11-02T21:57:49.746Z,101253.67
2018-11-02T22:00:20.296Z,101258.19
2018-11-02T22:02:49.702Z,101261.36
2018-11-02T22:05:18.957Z,101265.09
2018-11-02T22:07:49.217Z,101256.94
2018-11-02T22:10:18.749Z,101258.48
2018-11-02T22:12:48.006Z,101262.22
2018-11-02T22:15:17.159Z,101261.64
2018-11-02T22:17:46.713Z,101261.16
2018-11-02T22:20:16.320Z,101263.66
2018-11-02T22:22:45.713Z,101264.62
2018-11-02T22:25:15.909Z,101266.25
2018-11-02T22:27:45.104Z,101267.79
2018-11-02T22:30:15.634Z,101272.78
2018-11-02T22:32:44.806Z,101269.13
2018-11-02T22:35:14.610Z,101267.31
2018-11-02T22:37:44.046Z,101276.23
2018-11-02T22:40:13.925Z,101273.55
2018-11-02T22:42:43.770Z,101268.17
2018-11-02T22:45:14.029Z,101274.13
2018-11-02T22:47:47.714Z,101271.63
2018-11-02T22:50:17.522Z,101269.61
2018-11-02T22:52:46.674Z,101279.12
2018-11-02T22:55:16.249Z,101275.17
2018-11-02T22:57:45.401Z,101283.53
2018-11-02T23:00:17.097Z,101286.70
2018-11-02T23:02:47.166Z,101292.02
2018-11-02T23:05:16.794Z,101292.48
2018-11-02T23:07:46.118Z,101293.25
2018-11-02T23:10:15.241Z,101292.29
2018-11-02T23:12:44.804Z,101293.92
2018-11-02T23:15:14.230Z,101301.59
2018-11-02T23:17:43.617Z,101301.69
2018-11-02T23:20:14.092Z,101310.23
2018-11-02T23:22:43.323Z,101312.57
2018-11-02T23:25:12.955Z,101320.66
2018-11-02T23:27:43.685Z,101317.38
2018-11-02T23:30:12.882Z,101312.36
2018-11-02T23:32:42.066Z,101316.58
2018-11-02T23:35:11.311Z,101315.14
2018-11-02T23:37:40.423Z,101302.85
2018-11-02T23:40:10.810Z,101305.61
2018-11-02T23:42:40.410Z,101312.91
2018-11-02T23:45:10.786Z,101315.98
2018-11-02T23:47:41.857Z,101314.10
2018-11-02T23:50:11.049Z,101314.45
2018-11-02T23:52:40.243Z,101327.26
2018-11-02T23:55:09.645Z,101322.90
2018-11-02T23:57:39.126Z,101328.37
